createdAt,value
2022-08-08T00:01:13.843Z,59.94
2022-08-08T00:03:49.255Z,59.78
2022-08-08T00:06:28.271Z,59.70
2022-08-08T00:09:07.774Z,59.77
2022-08-08T00:11:46.770Z,59.65
2022-08-08T00:14:59.090Z,59.77
2022-08-08T00:17:25.593Z,60.07
2022-08-08T00:20:07.910Z,60.26
2022-08-08T00:22:47.330Z,60.24
2022-08-08T00:25:21.955Z,60.01
2022-08-08T00:27:54.530Z,59.98
2022-08-08T00:30:27.885Z,60.07
2022-08-08T00:33:03.077Z,60.16
2022-08-08T00:35:48.810Z,60.05
2022-08-08T00:38:51.693Z,60.01
2022-08-08T00:41:22.306Z,60.25
2022-08-08T00:44:33.346Z,59.91
2022-08-08T00:47:24.053Z,60.28
2022-08-08T00:50:26.933Z,60.13
2022-08-08T00:53:06.720Z,60.21
2022-08-08T00:55:59.143Z,60.11
2022-08-08T00:58:54.218Z,60.30
2022-08-08T01:01:38.421Z,60.46
2022-08-08T01:04:42.011Z,60.44
2022-08-08T01:07:34.416Z,60.50
2022-08-08T01:10:53.272Z,60.52
2022-08-08T01:13:52.909Z,60.66
2022-08-08T01:16:46.609Z,60.97
2022-08-08T01:19:52.222Z,60.93
2022-08-08T01:22:46.853Z,60.86
2022-08-08T01:25:40.307Z,60.97
2022-08-08T01:28:30.352Z,61.05
2022-08-08T01:32:13.740Z,61.27
2022-08-08T01:34:42.630Z,61.44
2022-08-08T01:37:56.253Z,61.37
2022-08-08T01:40:31.217Z,61.48
2022-08-08T01:43:05.359Z,61.68
2022-08-08T01:45:56.076Z,61.59
2022-08-08T01:48:36.213Z,62.03
2022-08-08T01:51:30.603Z,62.00
2022-08-08T01:55:25.474Z,62.04
2022-08-08T01:57:18.972Z,62.15
2022-08-08T02:00:13.107Z,61.84
2022-08-08T02:03:03.135Z,61.92
2022-08-08T02:05:58.820Z,61.98
2022-08-08T02:08:39.420Z,66.46
2022-08-08T02:11:59.342Z,63.59
2022-08-08T02:14:22.153Z,58.67
2022-08-08T02:16:58.915Z,55.23
2022-08-08T02:19:57.101Z,56.54
2022-08-08T02:22:52.448Z,57.62
2022-08-08T02:25:43.576Z,58.45
2022-08-08T02:28:25.942Z,59.13
2022-08-08T02:31:04.638Z,59.68
2022-08-08T02:34:00.678Z,60.19
2022-08-08T02:36:40.766Z,60.66
2022-08-08T02:39:40.893Z,60.92
2022-08-08T02:42:38.315Z,61.11
2022-08-08T02:45:21.838Z,61.55
2022-08-08T02:48:26.276Z,61.35
2022-08-08T02:51:47.598Z,61.81
2022-08-08T02:54:37.063Z,64.91
2022-08-08T02:57:40.374Z,60.14
2022-08-08T03:00:29.736Z,56.55
2022-08-08T03:03:46.076Z,57.31
2022-08-08T03:06:34.916Z,58.69
2022-08-08T03:09:36.535Z,59.18
2022-08-08T03:12:36.385Z,60.17
2022-08-08T03:15:58.109Z,60.59
2022-08-08T03:18:31.458Z,61.09
2022-08-08T03:21:10.190Z,61.65
2022-08-08T03:23:59.455Z,61.55
2022-08-08T03:26:42.295Z,61.66
2022-08-08T03:29:18.686Z,61.69
2022-08-08T03:32:16.107Z,62.08
2022-08-08T03:34:49.113Z,64.37
2022-08-08T03:37:59.757Z,62.13
2022-08-08T03:40:29.758Z,58.88
2022-08-08T03:43:16.631Z,56.11
2022-08-08T03:46:06.610Z,57.00
2022-08-08T03:49:31.030Z,58.04
2022-08-08T03:51:50.575Z,58.77
2022-08-08T03:54:41.637Z,59.18
2022-08-08T03:58:31.632Z,60.27
2022-08-08T04:00:12.219Z,60.44
2022-08-08T04:03:01.576Z,61.29
2022-08-08T04:05:35.062Z,61.45
2022-08-08T04:08:32.481Z,61.62
2022-08-08T04:11:11.275Z,61.94
2022-08-08T04:14:33.451Z,62.13
2022-08-08T04:16:41.420Z,61.96
2022-08-08T04:19:23.809Z,62.13
2022-08-08T04:22:00.348Z,62.15
2022-08-08T04:24:37.200Z,63.67
2022-08-08T04:27:42.779Z,61.58
2022-08-08T04:30:18.435Z,56.11
2022-08-08T04:32:52.372Z,55.96
2022-08-08T04:35:25.872Z,57.26
2022-08-08T04:38:00.460Z,57.89
2022-08-08T04:40:51.772Z,58.73
2022-08-08T04:43:32.425Z,59.95
2022-08-08T04:46:19.349Z,60.33
2022-08-08T04:48:51.932Z,60.58
2022-08-08T04:51:27.910Z,60.87
2022-08-08T04:54:39.283Z,61.08
2022-08-08T04:57:05.392Z,61.83
2022-08-08T04:59:42.204Z,62.21
2022-08-08T05:02:14.578Z,63.45
2022-08-08T05:04:45.883Z,62.71
2022-08-08T05:07:18.942Z,57.42
2022-08-08T05:09:49.706Z,56.27
2022-08-08T05:12:21.262Z,57.04
2022-08-08T05:15:08.710Z,58.03
2022-08-08T05:17:53.564Z,59.12
2022-08-08T05:20:27.876Z,59.91
2022-08-08T05:22:58.713Z,60.63
2022-08-08T05:25:40.505Z,60.63
2022-08-08T05:28:15.734Z,61.21
2022-08-08T05:31:19.216Z,61.36
2022-08-08T05:33:57.852Z,61.85
2022-08-08T05:36:30.053Z,63.40
2022-08-08T05:39:01.398Z,63.58
2022-08-08T05:41:35.141Z,57.30
2022-08-08T05:44:31.141Z,55.81
2022-08-08T05:47:04.983Z,56.94
2022-08-08T05:49:38.094Z,58.37
2022-08-08T05:52:09.718Z,59.94
2022-08-08T05:54:50.731Z,59.68
2022-08-08T05:58:04.219Z,60.07
2022-08-08T06:00:25.424Z,59.80
2022-08-08T06:03:17.238Z,61.22
2022-08-08T06:06:01.209Z,62.10
2022-08-08T06:08:36.910Z,64.35
2022-08-08T06:11:13.399Z,62.24
2022-08-08T06:13:49.435Z,58.28
2022-08-08T06:16:30.340Z,58.16
2022-08-08T06:19:14.464Z,59.81
2022-08-08T06:21:57.093Z,60.57
2022-08-08T06:24:50.915Z,65.60
2022-08-08T06:27:23.474Z,64.64
2022-08-08T06:30:00.836Z,58.87
2022-08-08T06:32:40.218Z,56.70
2022-08-08T06:36:06.019Z,58.30
2022-08-08T06:38:14.245Z,59.34
2022-08-08T06:40:53.908Z,62.55
2022-08-08T06:43:30.552Z,62.64
2022-08-08T06:46:09.206Z,59.20
2022-08-08T06:48:44.335Z,57.95
2022-08-08T06:51:17.406Z,58.30
2022-08-08T06:53:50.716Z,60.62
2022-08-08T06:56:31.223Z,61.32
2022-08-08T06:59:02.409Z,63.08
2022-08-08T07:02:27.614Z,62.00
2022-08-08T07:04:38.811Z,58.22
2022-08-08T07:07:19.149Z,57.50
2022-08-08T07:09:56.673Z,59.45
2022-08-08T07:12:35.729Z,60.46
2022-08-08T07:15:15.495Z,61.84
2022-08-08T07:18:01.581Z,61.73
2022-08-08T07:20:40.506Z,64.39
2022-08-08T07:23:23.923Z,61.97
2022-08-08T07:25:57.585Z,59.08
2022-08-08T07:28:31.399Z,57.64
2022-08-08T07:31:06.633Z,58.61
2022-08-08T07:33:53.280Z,59.69
2022-08-08T07:36:30.564Z,60.91
2022-08-08T07:39:03.683Z,61.34
2022-08-08T07:41:58.902Z,62.09
2022-08-08T07:44:37.841Z,61.64
2022-08-08T07:47:12.557Z,63.80
2022-08-08T07:49:46.190Z,62.77
2022-08-08T07:52:26.634Z,57.42
2022-08-08T07:54:59.898Z,57.11
2022-08-08T07:57:41.010Z,58.15
2022-08-08T08:00:20.038Z,58.44
2022-08-08T08:03:12.373Z,59.58
2022-08-08T08:05:53.297Z,59.44
2022-08-08T08:08:32.387Z,60.04
2022-08-08T08:11:04.064Z,59.91
2022-08-08T08:13:42.958Z,59.21
2022-08-08T08:16:26.863Z,59.82
2022-08-08T08:19:01.061Z,60.32
2022-08-08T08:21:52.486Z,60.19
2022-08-08T08:24:46.983Z,59.93
2022-08-08T08:27:20.282Z,60.20
2022-08-08T08:29:53.334Z,60.40
2022-08-08T08:32:36.033Z,60.20
2022-08-08T08:35:15.125Z,60.03
2022-08-08T08:38:12.880Z,60.09
2022-08-08T08:40:39.371Z,59.87
2022-08-08T08:43:16.786Z,59.72
2022-08-08T08:45:49.013Z,59.74
2022-08-08T08:48:21.166Z,58.35
2022-08-08T08:50:55.930Z,57.74
2022-08-08T08:53:56.474Z,57.46
2022-08-08T08:56:23.965Z,57.49
2022-08-08T08:58:57.953Z,56.83
2022-08-08T09:01:34.946Z,55.85
2022-08-08T09:04:10.080Z,56.26
2022-08-08T09:07:00.159Z,56.37
2022-08-08T09:09:39.617Z,55.81
2022-08-08T09:12:20.359Z,54.17
2022-08-08T09:14:52.723Z,54.31
2022-08-08T09:17:40.644Z,53.60
2022-08-08T09:22:04.773Z,53.79
2022-08-08T09:23:10.548Z,51.96
2022-08-08T09:25:54.546Z,51.99
2022-08-08T09:28:37.350Z,50.56
2022-08-08T09:31:16.289Z,51.74
2022-08-08T09:34:15.488Z,50.61
2022-08-08T09:36:51.798Z,49.83
2022-08-08T09:39:44.311Z,49.34
2022-08-08T09:42:20.944Z,49.00
2022-08-08T09:45:03.854Z,47.67
2022-08-08T09:48:04.179Z,48.00
2022-08-08T09:50:28.274Z,49.72
2022-08-08T09:53:02.249Z,49.80
2022-08-08T09:56:03.433Z,49.05
2022-08-08T09:58:41.383Z,46.95
2022-08-08T10:01:15.252Z,45.49
2022-08-08T10:04:07.578Z,45.49
2022-08-08T10:06:45.176Z,46.17
2022-08-08T10:09:16.321Z,46.47
2022-08-08T10:12:26.756Z,46.02
2022-08-08T10:14:43.507Z,45.40
2022-08-08T10:17:57.431Z,45.19
2022-08-08T10:20:05.039Z,44.44
2022-08-08T10:22:54.822Z,43.68
2022-08-08T10:25:26.480Z,43.08
2022-08-08T10:28:14.941Z,43.02
2022-08-08T10:31:00.807Z,42.98
2022-08-08T10:33:38.173Z,42.42
2022-08-08T10:36:26.530Z,42.45
2022-08-08T10:39:07.144Z,41.86
2022-08-08T10:41:58.545Z,42.07
2022-08-08T10:44:35.913Z,42.23
2022-08-08T10:47:14.328Z,42.01
2022-08-08T10:50:00.663Z,41.16
2022-08-08T10:52:34.113Z,40.93
2022-08-08T10:55:06.803Z,40.83
2022-08-08T10:57:49.879Z,40.68
2022-08-08T11:00:25.742Z,41.48
2022-08-08T11:02:56.966Z,41.45
2022-08-08T11:05:38.899Z,41.63
2022-08-08T11:08:31.277Z,41.96
2022-08-08T11:11:07.980Z,42.02
2022-08-08T11:14:00.574Z,42.36
2022-08-08T11:16:33.590Z,42.55
2022-08-08T11:19:06.112Z,42.69
2022-08-08T11:21:54.016Z,42.28
2022-08-08T11:24:29.260Z,40.67
2022-08-08T11:27:10.619Z,40.30
2022-08-08T11:30:19.810Z,39.91
2022-08-08T11:32:42.514Z,40.29
2022-08-08T11:35:24.904Z,41.09
2022-08-08T11:38:36.036Z,41.17
2022-08-08T11:40:55.992Z,40.53
2022-08-08T11:43:38.610Z,39.88
2022-08-08T11:46:13.984Z,39.39
2022-08-08T11:48:49.855Z,38.62
2022-08-08T11:51:30.676Z,39.03
2022-08-08T11:54:32.476Z,38.54
2022-08-08T11:57:13.978Z,38.50
2022-08-08T12:00:01.866Z,39.25
2022-08-08T12:02:51.142Z,39.18
2022-08-08T12:05:33.651Z,38.93
2022-08-08T12:08:05.184Z,38.47
2022-08-08T12:10:47.574Z,38.40
2022-08-08T12:13:17.183Z,39.22
2022-08-08T12:15:49.867Z,39.79
2022-08-08T12:18:24.510Z,39.61
2022-08-08T12:20:56.447Z,39.60
2022-08-08T12:23:42.682Z,38.92
2022-08-08T12:26:28.555Z,39.36
2022-08-08T12:29:21.626Z,38.69
2022-08-08T12:32:03.095Z,38.92
2022-08-08T12:34:44.096Z,38.24
2022-08-08T12:37:20.074Z,38.13
2022-08-08T12:40:01.236Z,38.32
2022-08-08T12:42:34.994Z,38.66
2022-08-08T12:45:53.899Z,38.51
2022-08-08T12:48:36.683Z,38.49
2022-08-08T12:51:02.721Z,38.49
2022-08-08T12:53:42.045Z,38.60
2022-08-08T12:56:19.486Z,38.99
2022-08-08T12:58:55.394Z,39.05
2022-08-08T13:01:37.722Z,39.50
2022-08-08T13:04:18.815Z,39.75
2022-08-08T13:07:02.855Z,39.33
2022-08-08T13:09:42.821Z,39.01
2022-08-08T13:12:30.203Z,39.35
2022-08-08T13:15:02.331Z,38.84
2022-08-08T13:18:08.480Z,38.83
2022-08-08T13:20:26.095Z,39.08
2022-08-08T13:25:50.085Z,38.39
2022-08-08T13:28:33.081Z,37.71
2022-08-08T13:31:04.642Z,38.11
2022-08-08T13:33:42.415Z,38.58
2022-08-08T13:36:13.706Z,37.72
2022-08-08T13:38:44.840Z,37.56
2022-08-08T13:41:16.115Z,37.64
2022-08-08T13:43:46.662Z,37.61
2022-08-08T13:46:26.336Z,37.41
2022-08-08T13:49:12.005Z,35.74
2022-08-08T13:51:59.572Z,34.82
2022-08-08T13:54:32.957Z,34.89
2022-08-08T13:57:12.455Z,34.66
2022-08-08T13:59:48.287Z,34.70
2022-08-08T14:02:21.182Z,35.25
2022-08-08T14:04:55.806Z,35.56
2022-08-08T14:07:29.922Z,35.43
2022-08-08T14:10:04.863Z,34.92
2022-08-08T14:12:43.749Z,33.96
2022-08-08T14:15:31.527Z,34.05
2022-08-08T14:18:34.790Z,33.34
2022-08-08T14:21:08.064Z,32.66
2022-08-08T14:24:03.815Z,32.16
2022-08-08T14:26:42.469Z,32.22
2022-08-08T14:29:29.036Z,31.92
2022-08-08T14:32:10.820Z,31.76
2022-08-08T14:34:43.703Z,30.98
2022-08-08T14:37:19.216Z,30.02
2022-08-08T14:39:53.698Z,29.13
2022-08-08T14:42:35.802Z,28.85
2022-08-08T14:45:10.121Z,26.70
2022-08-08T14:47:51.399Z,27.40
2022-08-08T14:50:37.913Z,25.84
2022-08-08T14:53:13.274Z,26.19
2022-08-08T14:55:45.098Z,25.73
2022-08-08T14:58:19.790Z,27.14
2022-08-08T15:00:52.754Z,28.00
2022-08-08T15:03:25.117Z,28.62
2022-08-08T15:05:58.793Z,29.63
2022-08-08T15:08:35.640Z,30.15
2022-08-08T15:11:14.484Z,30.68
2022-08-08T15:14:01.847Z,31.24
2022-08-08T15:16:34.075Z,31.73
2022-08-08T15:19:07.033Z,32.31
2022-08-08T15:27:57.709Z,34.48
2022-08-08T15:30:12.706Z,35.16
2022-08-08T15:32:45.317Z,35.54
2022-08-08T15:35:17.348Z,36.04
2022-08-08T15:37:52.009Z,36.30
2022-08-08T15:40:28.234Z,36.58
2022-08-08T15:42:59.523Z,37.30
2022-08-08T15:45:30.474Z,37.67
2022-08-08T15:48:15.607Z,37.84
2022-08-08T15:51:02.967Z,37.99
2022-08-08T15:53:49.032Z,38.40
2022-08-08T15:56:21.167Z,38.75
2022-08-08T15:58:52.658Z,39.09
2022-08-08T16:01:23.363Z,39.23
2022-08-08T16:04:13.913Z,39.36
2022-08-08T16:06:48.456Z,39.44
2022-08-08T16:13:10.887Z,39.70
2022-08-08T16:13:13.952Z,39.98
2022-08-08T16:15:00.804Z,40.39
2022-08-08T16:17:57.753Z,40.59
2022-08-08T16:20:21.957Z,40.64
2022-08-08T16:22:54.411Z,40.74
2022-08-08T16:25:29.931Z,41.02
2022-08-08T16:28:22.873Z,41.14
2022-08-08T16:31:07.563Z,41.37
2022-08-08T16:33:40.198Z,41.55
2022-08-08T16:36:15.640Z,41.72
2022-08-08T16:38:47.570Z,42.08
2022-08-08T16:41:24.333Z,42.31
2022-08-08T16:43:55.186Z,42.64
2022-08-08T16:46:37.332Z,42.72
2022-08-08T16:49:15.420Z,42.95
2022-08-08T16:55:00.056Z,43.25
2022-08-08T16:55:04.907Z,43.23
2022-08-08T16:58:14.527Z,43.79
2022-08-08T17:00:26.349Z,43.78
2022-08-08T17:02:57.842Z,44.00
2022-08-08T17:05:42.339Z,44.25
2022-08-08T17:08:15.999Z,44.29
2022-08-08T17:10:53.583Z,44.24
2022-08-08T17:13:41.248Z,44.19
2022-08-08T17:16:22.252Z,44.47
2022-08-08T17:18:55.390Z,44.53
2022-08-08T17:21:26.002Z,44.70
2022-08-08T17:23:58.154Z,44.88
2022-08-08T17:26:31.561Z,45.16
2022-08-08T17:29:04.384Z,45.33
2022-08-08T17:31:44.420Z,45.57
2022-08-08T17:34:48.704Z,45.75
2022-08-08T17:37:09.252Z,45.84
2022-08-08T17:40:04.695Z,46.13
2022-08-08T17:42:33.635Z,46.31
2022-08-08T17:45:04.756Z,46.57
2022-08-08T17:47:40.413Z,46.86
2022-08-08T17:50:11.867Z,47.09
2022-08-08T17:52:43.092Z,47.30
2022-08-08T17:56:06.022Z,47.68
2022-08-08T17:58:04.892Z,47.78
2022-08-08T18:00:38.978Z,48.25
2022-08-08T18:03:13.256Z,48.45
2022-08-08T18:05:49.247Z,48.72
2022-08-08T18:08:36.883Z,49.09
2022-08-08T18:11:15.504Z,49.23
2022-08-08T18:13:47.685Z,49.52
2022-08-08T18:16:23.332Z,49.90
2022-08-08T18:18:56.384Z,50.09
2022-08-08T18:22:00.020Z,50.60
2022-08-08T18:24:21.339Z,50.59
2022-08-08T18:26:56.641Z,50.82
2022-08-08T18:29:33.509Z,50.98
2022-08-08T18:32:06.721Z,51.86
2022-08-08T18:34:40.445Z,51.89
2022-08-08T18:37:33.509Z,52.02
2022-08-08T18:40:06.359Z,52.31
2022-08-08T18:42:45.711Z,53.10
2022-08-08T18:46:00.882Z,53.06
2022-08-08T18:48:18.207Z,53.23
2022-08-08T18:50:50.199Z,53.72
2022-08-08T18:53:50.882Z,53.56
2022-08-08T18:56:23.419Z,53.83
2022-08-08T18:58:54.298Z,54.22
2022-08-08T19:02:25.966Z,54.60
2022-08-08T19:04:15.748Z,55.07
2022-08-08T19:06:47.140Z,55.38
2022-08-08T19:09:32.341Z,55.54
2022-08-08T19:12:13.297Z,55.59
2022-08-08T19:14:44.882Z,56.15
2022-08-08T19:17:28.811Z,56.24
2022-08-08T19:20:07.652Z,56.36
2022-08-08T19:22:40.270Z,56.80
2022-08-08T19:26:20.060Z,57.27
2022-08-08T19:28:18.028Z,57.31
2022-08-08T19:31:04.056Z,57.35
2022-08-08T19:33:52.181Z,57.80
2022-08-08T19:36:28.546Z,57.92
2022-08-08T19:38:59.168Z,58.48
2022-08-08T19:41:30.115Z,58.32
2022-08-08T19:44:03.984Z,58.37
2022-08-08T19:46:43.549Z,58.96
2022-08-08T19:49:15.562Z,59.07
2022-08-08T19:51:46.446Z,59.16
2022-08-08T19:54:20.109Z,59.34
2022-08-08T19:56:50.659Z,59.57
2022-08-08T19:59:22.688Z,59.50
2022-08-08T20:02:02.988Z,59.53
2022-08-08T20:04:35.639Z,59.55
2022-08-08T20:08:29.192Z,59.82
2022-08-08T20:10:00.909Z,60.05
2022-08-08T20:12:35.255Z,60.48
2022-08-08T20:15:14.530Z,60.59
2022-08-08T20:17:48.916Z,60.82
2022-08-08T20:20:22.140Z,61.06
2022-08-08T20:22:54.333Z,61.11
2022-08-08T20:25:29.861Z,61.62
2022-08-08T20:28:06.619Z,61.62
2022-08-08T20:30:56.237Z,61.69
2022-08-08T20:34:03.922Z,61.50
2022-08-08T20:36:22.228Z,62.73
2022-08-08T20:38:53.110Z,64.71
2022-08-08T20:41:24.157Z,58.16
2022-08-08T20:43:58.257Z,56.48
2022-08-08T20:46:29.397Z,56.96
2022-08-08T20:49:00.148Z,57.97
2022-08-08T20:51:31.741Z,58.66
2022-08-08T20:54:09.522Z,59.01
2022-08-08T20:57:05.784Z,59.43
2022-08-08T20:59:41.447Z,59.19
2022-08-08T21:02:12.461Z,60.19
2022-08-08T21:04:50.120Z,60.16
2022-08-08T21:07:47.974Z,60.28
2022-08-08T21:10:12.795Z,60.80
2022-08-08T21:12:44.444Z,61.17
2022-08-08T21:16:05.937Z,61.56
2022-08-08T21:18:07.419Z,61.84
2022-08-08T21:20:38.077Z,64.85
2022-08-08T21:23:09.340Z,62.48
2022-08-08T21:25:40.245Z,56.88
2022-08-08T21:28:15.753Z,57.26
2022-08-08T21:30:49.698Z,58.42
2022-08-08T21:33:22.890Z,58.99
2022-08-08T21:36:16.496Z,60.44
2022-08-08T21:38:44.126Z,61.96
2022-08-08T21:41:28.901Z,63.85
2022-08-08T21:44:06.064Z,64.08
2022-08-08T21:48:05.363Z,59.00
2022-08-08T21:49:27.309Z,57.65
2022-08-08T21:54:34.992Z,58.75
2022-08-08T21:54:54.287Z,59.51
2022-08-08T21:57:41.809Z,61.28
2022-08-08T22:00:14.211Z,61.52
2022-08-08T22:02:46.392Z,65.29
2022-08-08T22:05:16.861Z,63.90
2022-08-08T22:07:49.015Z,59.52
2022-08-08T22:10:28.776Z,57.89
2022-08-08T22:13:18.755Z,58.31
2022-08-08T22:15:58.828Z,59.41
2022-08-08T22:18:35.615Z,60.51
2022-08-08T22:21:14.685Z,60.99
2022-08-08T22:23:50.636Z,65.25
2022-08-08T22:26:29.568Z,64.36
2022-08-08T22:29:14.966Z,60.51
2022-08-08T22:32:01.720Z,56.78
2022-08-08T22:34:39.449Z,56.44
2022-08-08T22:37:15.097Z,57.28
2022-08-08T22:40:02.168Z,59.19
2022-08-08T22:42:34.650Z,59.79
2022-08-08T22:45:12.378Z,60.87
2022-08-08T22:47:47.437Z,64.38
2022-08-08T22:50:27.456Z,63.54
2022-08-08T22:54:31.231Z,58.91
2022-08-08T22:55:56.042Z,57.40
2022-08-08T22:58:33.056Z,58.57
2022-08-08T23:02:01.248Z,58.88
2022-08-08T23:03:56.558Z,59.73
2022-08-08T23:06:27.754Z,61.00
2022-08-08T23:09:00.215Z,65.00
2022-08-08T23:12:28.935Z,65.05
2022-08-08T23:14:22.618Z,60.77
2022-08-08T23:16:59.707Z,56.87
2022-08-08T23:19:30.848Z,56.37
2022-08-08T23:22:04.986Z,57.53
2022-08-08T23:24:41.367Z,59.09
2022-08-08T23:27:38.127Z,60.78
2022-08-08T23:30:04.297Z,61.68
2022-08-08T23:32:35.287Z,65.05
2022-08-08T23:35:17.221Z,65.23
2022-08-08T23:38:02.888Z,60.21
2022-08-08T23:40:34.490Z,56.95
2022-08-08T23:43:06.875Z,57.80
2022-08-08T23:49:00.410Z,58.53
2022-08-08T23:49:07.120Z,59.30
2022-08-08T23:51:41.945Z,60.77
2022-08-08T23:54:41.331Z,64.51
2022-08-08T23:57:00.328Z,64.03
2022-08-08T23:59:31.900Z,58.59
